Aviation Digital Data Service (ADDS)

Output produced by METARs form (0251 UTC 21 January 2018)
found at http://www.aviationweather.gov/adds/metars/
 
KBQP 210235Z AUTO 16005KT 10SM SCT020 OVC048 15/14 A3013 RMK AO2 T01450142
KBQP 210215Z AUTO 16003KT 10SM BKN020 OVC048 15/14 A3013 RMK AO2 T01450142
KBQP 210155Z AUTO 17004KT 10SM OVC018 15/15 A3014 RMK AO2 T01490145
KBQP 210135Z AUTO 15004KT 10SM SCT013 OVC018 15/15 A3013 RMK AO2 T01500147
KBQP 210115Z AUTO 16005KT 10SM OVC013 15/15 A3013 RMK AO2 T01510148
KBQP 210055Z AUTO 16004KT 10SM OVC013 15/15 A3012 RMK AO2 T01530150
KBQP 210035Z AUTO 00000KT 10SM OVC013 16/15 A3012 RMK AO2 T01560150
KBQP 210015Z AUTO 15003KT 10SM OVC013 16/15 A3012 RMK AO2 T01570151
KBQP 202355Z AUTO 15006KT 10SM OVC013 16/15 A3012 RMK AO2 T01600150 10177 20144
KBQP 202335Z AUTO 17006KT 10SM OVC013 16/15 A3012 RMK AO2 T01600149
KBQP 202315Z AUTO 17009G15KT 10SM OVC013 16/15 A3012 RMK AO2 T01610146
KBQP 202255Z AUTO 17007KT 10SM OVC015 17/15 A3012 RMK AO2 T01650145
KBQP 202235Z AUTO 17011G16KT 140V200 10SM OVC015 17/14 A3012 RMK AO2 T01660143
KBQP 202215Z AUTO 16008G15KT 10SM OVC015 17/14 A3011 RMK AO2 T01680142
KBQP 202155Z AUTO 15005KT 10SM OVC015 17/14 A3011 RMK AO2 T01680140
KBQP 202135Z AUTO 17006KT 10SM OVC015 17/14 A3011 RMK AO2 T01670136
KBQP 202115Z AUTO 17009G17KT 10SM OVC017 17/13 A3011 RMK AO2 T01690133
KBQP 202055Z AUTO 16008KT 130V190 10SM OVC019 17/13 A3012 RMK AO2 T01720130
KBQP 202035Z AUTO 17008G14KT 10SM OVC021 17/13 A3012 RMK AO2 T01700130
KBQP 202015Z AUTO 18008KT 140V200 10SM OVC021 17/13 A3012 RMK AO2 T01650130
KBQP 201955Z AUTO 17006KT 10SM -RA BKN019 BKN026 OVC038 16/14 A3012 RMK AO2 T01600138
KBQP 201935Z AUTO 18008KT 10SM SCT021 BKN038 OVC055 17/12 A3013 RMK AO2 T01730118
KBQP 201915Z AUTO 17010G17KT 10SM SCT019 BKN044 OVC060 18/11 A3014 RMK AO2 T01750112
KBQP 201855Z AUTO 17011G15KT 10SM SCT017 SCT025 BKN048 17/11 A3014 RMK AO2 T01740106
KBQP 201835Z AUTO 18009G14KT 10SM SCT017 SCT042 SCT048 17/10 A3015 RMK AO2 T01720098
KBQP 201815Z AUTO 16009KT 120V180 10SM SCT023 SCT027 BKN046 16/09 A3016 RMK AO2 T01580087
KBQP 201755Z AUTO 18007G15KT 10SM SCT021 BKN027 OVC045 14/08 A3017 RMK AO2 T01440078 10146 20070
KBQP 201735Z AUTO 18009G14KT 10SM SCT018 BKN050 OVC070 14/08 A3018 RMK AO2 T01430077
KBQP 201715Z AUTO 16007KT 140V200 10SM SCT027 BKN070 OVC090 14/07 A3019 RMK AO2 T01430074
KBQP 201655Z AUTO 17006KT 10SM SCT028 SCT050 BKN100 13/06 A3020 RMK AO2 T01330062
KBQP 201635Z AUTO 19008KT 10SM SCT050 SCT095 14/06 A3020 RMK AO2 T01390058
KBQP 201615Z AUTO 14005KT 10SM SCT065 BKN095 13/05 A3020 RMK AO2 T01310046
KBQP 201555Z AUTO 15005KT 10SM BKN065 OVC095 11/03 A3020 RMK AO2 T01100033
KBQP 201535Z AUTO 14004KT 10SM SCT019 BKN065 OVC095 11/03 A3020 RMK AO2 T01060030
KBQP 201515Z AUTO 16004KT 10SM SCT019 BKN036 OVC095 10/03 A3020 RMK AO2 T01030025
KBQP 201455Z AUTO 14006KT 10SM BKN035 OVC085 10/02 A3019 RMK AO2 T00950020
KBQP 201435Z AUTO 15004KT 10SM BKN022 BKN033 OVC085 09/02 A3019 RMK AO2 T00930017
KBQP 201415Z AUTO 14006KT 10SM OVC022 09/02 A3018 RMK AO2 T00850015
KBQP 201355Z AUTO 16003KT 10SM BKN024 OVC034 08/01 A3018 RMK AO2 T00790011
KBQP 201335Z AUTO 14003KT 10SM BKN024 OVC032 07/01 A3018 RMK AO2 T00720006
KBQP 201315Z AUTO 00000KT 10SM SCT024 BKN032 BKN080 07/00 A3018 RMK AO2 T00700003
KBQP 201255Z AUTO 14003KT 10SM BKN034 OVC080 07/00 A3017 RMK AO2 T00700001
KBQP 201235Z AUTO 14004KT 10SM BKN034 OVC075 07/00 A3017 RMK AO2 T00700000
KBQP 201215Z AUTO 15004KT 10SM BKN034 OVC075 07/00 A3017 RMK AO2 T00701003
KBQP 201155Z AUTO 15004KT 10SM OVC034 07/M01 A3017 RMK AO2 T00701009 10075 20061
KBQP 201135Z AUTO 14003KT 10SM BKN032 BKN080 07/M01 A3017 RMK AO2 T00661015
KBQP 201115Z AUTO 14004KT 10SM OVC030 07/M02 A3017 RMK AO2 T00701020
KBQP 201055Z AUTO 16003KT 10SM OVC028 07/M02 A3018 RMK AO2 T00701025
KBQP 201035Z AUTO 16004KT 10SM BKN030 BKN080 BKN090 07/M03 A3017 RMK AO2 T00651030
KBQP 201015Z AUTO 00000KT 10SM SCT032 SCT090 06/M03 A3018 RMK AO2 T00611035
KBQP 200955Z AUTO 15004KT 10SM SCT080 07/M03 A3018 RMK AO2 T00661035
KBQP 200935Z AUTO 14003KT 10SM SCT080 07/M04 A3018 RMK AO2 T00671036
KBQP 200915Z AUTO 15003KT 10SM OVC080 07/M04 A3018 RMK AO2 T00701036
KBQP 200855Z AUTO 00000KT 10SM OVC070 07/M03 A3018 RMK AO2 T00701035
KBQP 200835Z AUTO 00000KT 10SM OVC070 07/M03 A3018 RMK AO2 T00731033
KBQP 200815Z AUTO 16004KT 10SM OVC060 07/M03 A3018 RMK AO2 T00741035
KBQP 200755Z AUTO 17003KT 10SM OVC060 07/M03 A3019 RMK AO2 T00701032
KBQP 200735Z AUTO 17003KT 10SM OVC060 07/M03 A3019 RMK AO2 T00711033
KBQP 200715Z AUTO 18003KT 10SM OVC060 07/M03 A3020 RMK AO2 T00731035
KBQP 200655Z AUTO 18004KT 10SM OVC060 07/M04 A3020 RMK AO2 T00741036
KBQP 200635Z AUTO 17004KT 10SM OVC060 07/M03 A3020 RMK AO2 T00701035
KBQP 200615Z AUTO 17003KT 10SM OVC060 07/M03 A3020 RMK AO2 T00661035
KBQP 200555Z AUTO 16003KT 10SM OVC060 07/M04 A3020 RMK AO2 T00721037 10078 20070 400911061
KBQP 200535Z AUTO 00000KT 10SM OVC060 07/M04 A3020 RMK AO2 T00721038
KBQP 200515Z AUTO 17003KT 10SM OVC060 07/M04 A3021 RMK AO2 T00711038
KBQP 200455Z AUTO 16003KT 10SM OVC060 07/M04 A3021 RMK AO2 T00721039
KBQP 200435Z AUTO 15003KT 10SM OVC060 07/M04 A3022 RMK AO2 T00721040
KBQP 200415Z AUTO 16003KT 10SM OVC050 07/M04 A3022 RMK AO2 T00731044
KBQP 200355Z AUTO 16003KT 10SM OVC050 07/M04 A3022 RMK AO2 T00721045
KBQP 200335Z AUTO 15004KT 10SM OVC050 07/M04 A3022 RMK AO2 T00721044
KBQP 200315Z AUTO 18003KT 10SM OVC050 07/M04 A3022 RMK AO2 T00711045
KBQP 200255Z AUTO 17004KT 10SM OVC050 07/M04 A3022 RMK AO2 T00701043
KBQP 200235Z AUTO 17004KT 10SM OVC050 07/M04 A3022 RMK AO2 T00711044
KBQP 200215Z AUTO 17004KT 10SM OVC050 07/M04 A3022 RMK AO2 T00731044
KBQP 200155Z AUTO 14004KT 10SM OVC050 07/M04 A3021 RMK AO2 T00731042
KBQP 200135Z AUTO 15004KT 10SM OVC050 08/M04 A3021 RMK AO2 T00751041
KBQP 200115Z AUTO 15003KT 10SM OVC050 08/M04 A3021 RMK AO2 T00751042
KBQP 200055Z AUTO 14003KT 10SM OVC050 08/M04 A3021 RMK AO2 T00751043
KBQP 200035Z AUTO 00000KT 10SM OVC050 08/M04 A3021 RMK AO2 T00761040
KBQP 200015Z AUTO 00000KT 10SM OVC048 08/M04 A3022 RMK AO2 T00761040
KBQP 192355Z AUTO 00000KT 10SM OVC048 08/M04 A3021 RMK AO2 T00781042 10091 20065
KBQP 192335Z AUTO 00000KT 10SM OVC048 08/M04 A3021 RMK AO2 T00801044
KBQP 192315Z AUTO 15004KT 10SM OVC050 08/M04 A3021 RMK AO2 T00801041
KBQP 192255Z AUTO 17003KT 10SM OVC050 08/M04 A3021 RMK AO2 T00811037
KBQP 192235Z AUTO 14004KT 10SM OVC050 08/M04 A3021 RMK AO2 T00831044
KBQP 192215Z AUTO 17003KT 10SM OVC050 09/M05 A3022 RMK AO2 T00851050
KBQP 192155Z AUTO 00000KT 10SM SCT043 OVC050 09/M05 A3022 RMK AO2 T00851047
KBQP 192135Z AUTO 16003KT 10SM BKN043 OVC050 09/M04 A3022 RMK AO2 T00851045
KBQP 192115Z AUTO 17004KT 10SM BKN041 OVC050 09/M05 A3022 RMK AO2 T00851047
KBQP 192055Z AUTO 19005KT 10SM BKN037 OVC042 09/M05 A3022 RMK AO2 T00901048
KBQP 192035Z AUTO 17004KT 10SM BKN037 OVC050 09/M05 A3023 RMK AO2 T00871053
KBQP 192015Z AUTO 19006KT 10SM SCT043 OVC050 09/M05 A3023 RMK AO2 T00891055
KBQP 191955Z AUTO 15005KT 10SM OVC045 08/M05 A3025 RMK AO2 LTG DSNT SW T00781054
KBQP 191935Z AUTO 17006KT 10SM BKN045 OVC050 08/M05 A3026 RMK AO2 T00801046
KBQP 191915Z AUTO 17004KT 10SM BKN043 OVC050 07/M05 A3027 RMK AO2 T00701054
KBQP 191855Z AUTO 17005KT 10SM OVC043 07/M06 A3028 RMK AO2 T00651056
KBQP 191835Z AUTO 18004KT 10SM BKN043 OVC050 07/M06 A3029 RMK AO2 T00661063
KBQP 191815Z AUTO 19005KT 10SM SCT043 OVC050 07/M06 A3030 RMK AO2 T00701063
KBQP 191755Z AUTO 19005KT 10SM SCT043 OVC050 07/M07 A3030 RMK AO2 T00671069 10067 20002
KBQP 191735Z AUTO 17006KT 10SM OVC050 06/M07 A3032 RMK AO2 T00621075
KBQP 191715Z AUTO 16004KT 10SM OVC050 06/M06 A3033 RMK AO2 T00591065
KBQP 191655Z AUTO 16003KT 10SM OVC050 05/M06 A3034 RMK AO2 T00531056
KBQP 191635Z AUTO 17003KT 10SM OVC050 05/M05 A3035 RMK AO2 T00461054
KBQP 191615Z AUTO 00000KT 10SM OVC050 04/M05 A3036 RMK AO2 T00401052
KBQP 191555Z AUTO 19003KT 10SM OVC050 04/M05 A3036 RMK AO2 T00361053
KBQP 191535Z AUTO 19003KT 10SM OVC050 03/M05 A3036 RMK AO2 T00301053
KBQP 191515Z AUTO 18003KT 10SM OVC050 03/M06 A3036 RMK AO2 T00251057
KBQP 191455Z AUTO 18005KT 10SM OVC050 02/M06 A3035 RMK AO2 T00201058
KBQP 191435Z AUTO 18004KT 10SM OVC050 02/M06 A3035 RMK AO2 T00171060
KBQP 191415Z AUTO 20003KT 10SM OVC050 01/M06 A3034 RMK AO2 T00131060
KBQP 191355Z AUTO 16003KT 10SM OVC055 01/M06 A3034 RMK AO2 T00111060
KBQP 191335Z AUTO 00000KT 10SM OVC055 01/M06 A3034 RMK AO2 T00101061
KBQP 191315Z AUTO 18003KT 10SM OVC055 01/M06 A3034 RMK AO2 T00081062
KBQP 191255Z AUTO 17004KT 10SM OVC055 01/M06 A3034 RMK AO2 T00061063
KBQP 191235Z AUTO 17003KT 10SM OVC055 01/M06 A3034 RMK AO2 T00051062
KBQP 191215Z AUTO 17004KT 10SM SCT043 OVC055 00/M06 A3034 RMK AO2 T00031061
KBQP 191155Z AUTO 17004KT 10SM SCT045 OVC055 00/M06 A3034 RMK AO2 T00021064 10003 21061
KBQP 191135Z AUTO 17004KT 10SM BKN045 OVC055 00/M07 A3034 RMK AO2 T00021066
KBQP 191115Z AUTO 18003KT 10SM SCT049 OVC055 00/M06 A3034 RMK AO2 T00001065
KBQP 191055Z AUTO 00000KT 10SM SCT048 OVC055 00/M06 A3034 RMK AO2 T10011062
KBQP 191035Z AUTO 17003KT 10SM BKN048 OVC055 00/M06 A3034 RMK AO2 T10021060
KBQP 191015Z AUTO 00000KT 10SM BKN050 OVC055 00/M06 A3035 RMK AO2 LTG DSNT SW T10031063
KBQP 190955Z AUTO 18004KT 10SM OVC050 00/M06 A3035 RMK AO2 T10051061
KBQP 190935Z AUTO 16003KT 10SM OVC050 M01/M07 A3035 RMK AO2 T10061066
KBQP 190915Z AUTO 19003KT 10SM OVC050 M01/M06 A3036 RMK AO2 T10081061
KBQP 190855Z AUTO 15003KT 10SM OVC050 M01/M06 A3036 RMK AO2 T10111065
KBQP 190835Z AUTO 16003KT 10SM BKN050 M02/M07 A3038 RMK AO2 T10241067
KBQP 190815Z AUTO 00000KT 10SM SCT055 M03/M07 A3038 RMK AO2 T10281069
KBQP 190755Z AUTO 18004KT 10SM OVC055 M04/M05 A3038 RMK AO2 T10421048
KBQP 190735Z AUTO 00000KT 10SM BKN055 M05/M06 A3038 RMK AO2 T10551058
KBQP 190715Z AUTO 00000KT 10SM CLR M06/M06 A3039 RMK AO2 T10591063
KBQP 190655Z AUTO 00000KT 10SM CLR M06/M06 A3039 RMK AO2 T10581064
KBQP 190635Z AUTO 00000KT 10SM CLR M06/M06 A3039 RMK AO2 T10581063
KBQP 190615Z AUTO 00000KT 10SM CLR M06/M06 A3040 RMK AO2 T10571064
KBQP 190555Z AUTO 00000KT 10SM CLR M06/M06 A3041 RMK AO2 T10591065 11018 21065 400421117
KBQP 190535Z AUTO 00000KT 10SM CLR M06/M07 A3041 RMK AO2 T10601066
KBQP 190515Z AUTO 00000KT 10SM CLR M06/M07 A3041 RMK AO2 T10611066
KBQP 190455Z AUTO 00000KT 10SM CLR M06/M07 A3041 RMK AO2 T10621071
KBQP 190435Z AUTO 00000KT 10SM CLR M06/M06 A3041 RMK AO2 T10601063
KBQP 190415Z AUTO 00000KT 10SM CLR M06/M07 A3042 RMK AO2 T10611067
KBQP 190355Z AUTO 00000KT 10SM CLR M06/M07 A3042 RMK AO2 T10581072
KBQP 190335Z AUTO 00000KT 10SM CLR M06/M06 A3042 RMK AO2 T10581065
KBQP 190315Z AUTO 00000KT 10SM CLR M06/M07 A3042 RMK AO2 T10581068
KBQP 190255Z AUTO 00000KT 10SM CLR M05/M07 A3042 RMK AO2 T10541074
KBQP 190235Z AUTO 00000KT 10SM CLR M05/M07 A3041 RMK AO2 T10511073
KBQP 190215Z AUTO 00000KT 10SM CLR M05/M07 A3042 RMK AO2 T10481069
KBQP 190155Z AUTO 00000KT 10SM CLR M04/M06 A3041 RMK AO2 T10421059
KBQP 190135Z AUTO 00000KT 10SM CLR M04/M06 A3041 RMK AO2 T10451063
KBQP 190115Z AUTO 00000KT 10SM CLR M04/M08 A3042 RMK AO2 T10451077
KBQP 190055Z AUTO 00000KT 10SM CLR M03/M07 A3042 RMK AO2 T10351075
KBQP 190035Z AUTO 00000KT 10SM CLR M03/M08 A3043 RMK AO2 T10311079
KBQP 190015Z AUTO 00000KT 10SM CLR M02/M09 A3042 RMK AO2 T10221086
KBQP 182355Z AUTO 00000KT 10SM CLR M02/M08 A3043 RMK AO2 T10171078 10042 21017
KBQP 182335Z AUTO 00000KT 10SM CLR 00/M08 A3043 RMK AO2 T10031083
KBQP 182315Z AUTO 00000KT 10SM CLR 02/M09 A3044 RMK AO2 T00191093
KBQP 182255Z AUTO 00000KT 10SM CLR 02/M09 A3045 RMK AO2 T00241090
KBQP 182235Z AUTO 17005KT 10SM CLR 03/M09 A3045 RMK AO2 T00291093
KBQP 182215Z AUTO 17003KT 10SM CLR 04/M10 A3045 RMK AO2 T00351100
KBQP 182155Z AUTO 16003KT 10SM CLR 04/M10 A3046 RMK AO2 T00391098
KBQP 182135Z AUTO 11004KT 10SM CLR 04/M09 A3046 RMK AO2 T00391091
KBQP 182115Z AUTO 11004KT 10SM CLR 04/M09 A3046 RMK AO2 T00401090
KBQP 182055Z AUTO 11003KT 10SM CLR 04/M09 A3046 RMK AO2 T00391086
KBQP 182035Z AUTO 07005KT 10SM CLR 04/M08 A3046 RMK AO2 T00401081
KBQP 182015Z AUTO 00000KT 10SM CLR 04/M08 A3048 RMK AO2 T00401085
KBQP 181955Z AUTO 11005KT 10SM CLR 04/M09 A3049 RMK AO2 T00361086
KBQP 181935Z AUTO 15003KT 10SM CLR 03/M08 A3051 RMK AO2 T00331083
KBQP 181915Z AUTO 00000KT 10SM CLR 03/M09 A3052 RMK AO2 T00291092
KBQP 181855Z AUTO 00000KT 10SM CLR 02/M10 A3053 RMK AO2 T00211096
KBQP 181835Z AUTO 00000KT 10SM CLR 02/M10 A3055 RMK AO2 T00171102
KBQP 181815Z AUTO 00000KT 10SM CLR 02/M10 A3056 RMK AO2 T00181104
KBQP 181755Z AUTO 00000KT 10SM CLR 01/M11 A3058 RMK AO2 T00101107 10011 21117
KBQP 181735Z AUTO 14004KT 10SM CLR 01/M10 A3059 RMK AO2 T00071096
KBQP 181715Z AUTO 00000KT 10SM CLR 00/M10 A3060 RMK AO2 T00011096
KBQP 181655Z AUTO 00000KT 10SM CLR 00/M09 A3061 RMK AO2 T10021089
KBQP 181635Z AUTO 20003KT 10SM CLR M01/M08 A3062 RMK AO2 T10091081
KBQP 181615Z AUTO 00000KT 10SM CLR M01/M07 A3063 RMK AO2 T10151075
KBQP 181555Z AUTO 00000KT 10SM CLR M02/M08 A3063 RMK AO2 T10251076
KBQP 181535Z AUTO 00000KT 10SM CLR M03/M07 A3063 RMK AO2 T10321073
KBQP 181515Z AUTO 00000KT 10SM CLR M04/M08 A3062 RMK AO2 T10421080
KBQP 181455Z AUTO 00000KT 10SM CLR M05/M08 A3062 RMK AO2 T10501082
KBQP 181435Z AUTO 00000KT 10SM CLR M06/M07 A3061 RMK AO2 T10611069
KBQP 181415Z AUTO 00000KT 10SM CLR M08/M09 A3061 RMK AO2 T10841087
KBQP 181355Z AUTO 00000KT 10SM CLR M10/M10 A3061 RMK AO2 T10991103
KBQP 181335Z AUTO 00000KT 10SM CLR M11/M12 A3061 RMK AO2 T11151122
KBQP 181315Z AUTO 00000KT 10SM CLR M12/M12 A3061 RMK AO2 T11161125
KBQP 181255Z AUTO 00000KT 10SM CLR M12/M12 A3061 RMK AO2 T11161123
KBQP 181235Z AUTO 00000KT 10SM CLR M11/M12 A3060 RMK AO2 T11151121
KBQP 181215Z AUTO 00000KT 10SM CLR M12/M12 A3060 RMK AO2 T11161124
KBQP 181155Z AUTO 00000KT 10SM CLR M11/M12 A3060 RMK AO2 T11151122 11097 21115
KBQP 181135Z AUTO 00000KT 10SM CLR M11/M12 A3060 RMK AO2 T11121118
KBQP 181115Z AUTO 00000KT 10SM CLR M11/M12 A3061 RMK AO2 T11131120
KBQP 181055Z AUTO 00000KT 10SM CLR M11/M12 A3061 RMK AO2 T11121118
KBQP 181035Z AUTO 00000KT 10SM CLR M11/M11 A3062 RMK AO2 T11111115
KBQP 181015Z AUTO 00000KT 10SM CLR M11/M11 A3062 RMK AO2 T11101115
KBQP 180955Z AUTO 00000KT 10SM CLR M11/M11 A3063 RMK AO2 T11111115
KBQP 180935Z AUTO 00000KT 10SM CLR M11/M12 A3063 RMK AO2 T11101116
KBQP 180915Z AUTO 00000KT 10SM CLR M11/M12 A3063 RMK AO2 T11101116
KBQP 180855Z AUTO 00000KT 10SM CLR M11/M11 A3063 RMK AO2 T11081112
KBQP 180835Z AUTO 00000KT 10SM CLR M11/M11 A3064 RMK AO2 T11071110
KBQP 180815Z AUTO 00000KT 10SM CLR M11/M11 A3064 RMK AO2 T11081111
KBQP 180755Z AUTO 00000KT 10SM CLR M10/M11 A3063 RMK AO2 T11051109
KBQP 180735Z AUTO 00000KT 10SM CLR M10/M11 A3063 RMK AO2 T11051108
KBQP 180715Z AUTO 00000KT 10SM CLR M10/M11 A3063 RMK AO2 T11041106
KBQP 180655Z AUTO 00000KT 10SM CLR M10/M10 A3063 RMK AO2 T11021105
KBQP 180635Z AUTO 00000KT 10SM CLR M10/M10 A3063 RMK AO2 T11021105
KBQP 180615Z AUTO 00000KT 10SM CLR M10/M10 A3064 RMK AO2 T11001103
KBQP 180555Z AUTO 00000KT 10SM CLR M10/M10 A3064 RMK AO2 T10981101 11051 21100 410151131
KBQP 180535Z AUTO 00000KT 10SM CLR M10/M10 A3065 RMK AO2 T10961100
KBQP 180515Z AUTO 00000KT 10SM CLR M09/M10 A3065 RMK AO2 T10951098
KBQP 180455Z AUTO 00000KT 10SM CLR M09/M09 A3065 RMK AO2 T10911095
KBQP 180435Z AUTO 00000KT 10SM CLR M09/M10 A3066 RMK AO2 T10891100
KBQP 180415Z AUTO 00000KT 10SM CLR M09/M09 A3065 RMK AO2 T10861092
KBQP 180355Z AUTO 00000KT 10SM CLR M09/M09 A3066 RMK AO2 T10911095
KBQP 180335Z AUTO 00000KT 10SM CLR M09/M09 A3066 RMK AO2 T10871095
KBQP 180315Z AUTO 00000KT 10SM CLR M08/M10 A3066 RMK AO2 T10821101
KBQP 180255Z AUTO 00000KT 10SM CLR M08/M10 A3066 RMK AO2 T10761101